sensor_id;sensor_type;location;lat;lon;timestamp;P1;durP1;ratioP1;P2;durP2;ratioP2
10090;SDS011;5084;51.386;6.778;2022-11-15T00:02:04;5.23;;;4.73;;
10090;SDS011;5084;51.386;6.778;2022-11-15T00:04:30;5.87;;;5.33;;
10090;SDS011;5084;51.386;6.778;2022-11-15T00:07:11;6.30;;;5.70;;
10090;SDS011;5084;51.386;6.778;2022-11-15T00:09:40;5.93;;;5.33;;
10090;SDS011;5084;51.386;6.778;2022-11-15T00:12:16;5.37;;;4.70;;
10090;SDS011;5084;51.386;6.778;2022-11-15T00:14:42;5.30;;;4.80;;
10090;SDS011;5084;51.386;6.778;2022-11-15T00:17:08;7.00;;;5.47;;
10090;SDS011;5084;51.386;6.778;2022-11-15T00:19:35;5.73;;;5.20;;
10090;SDS011;5084;51.386;6.778;2022-11-15T00:22:01;6.47;;;5.40;;
10090;SDS011;5084;51.386;6.778;2022-11-15T00:24:27;5.97;;;5.07;;
10090;SDS011;5084;51.386;6.778;2022-11-15T00:26:53;5.93;;;5.40;;
10090;SDS011;5084;51.386;6.778;2022-11-15T00:29:19;5.73;;;5.23;;
10090;SDS011;5084;51.386;6.778;2022-11-15T00:31:45;7.47;;;6.27;;
10090;SDS011;5084;51.386;6.778;2022-11-15T00:34:11;5.90;;;4.87;;
10090;SDS011;5084;51.386;6.778;2022-11-15T00:36:37;5.50;;;5.00;;
10090;SDS011;5084;51.386;6.778;2022-11-15T00:39:06;5.83;;;4.70;;
10090;SDS011;5084;51.386;6.778;2022-11-15T00:41:35;6.83;;;5.40;;
10090;SDS011;5084;51.386;6.778;2022-11-15T00:44:02;4.90;;;4.50;;
10090;SDS011;5084;51.386;6.778;2022-11-15T00:46:28;6.90;;;5.13;;
10090;SDS011;5084;51.386;6.778;2022-11-15T00:48:54;4.90;;;4.40;;
10090;SDS011;5084;51.386;6.778;2022-11-15T00:51:27;5.63;;;5.13;;
10090;SDS011;5084;51.386;6.778;2022-11-15T00:53:58;5.33;;;4.83;;
10090;SDS011;5084;51.386;6.778;2022-11-15T00:56:28;6.23;;;5.43;;
10090;SDS011;5084;51.386;6.778;2022-11-15T00:59:03;6.27;;;5.63;;
10090;SDS011;5084;51.386;6.778;2022-11-15T01:01:29;5.70;;;5.17;;
10090;SDS011;5084;51.386;6.778;2022-11-15T01:03:58;5.33;;;4.83;;
10090;SDS011;5084;51.386;6.778;2022-11-15T01:06:24;5.83;;;5.33;;
10090;SDS011;5084;51.386;6.778;2022-11-15T01:08:50;6.03;;;5.37;;
10090;SDS011;5084;51.386;6.778;2022-11-15T01:11:17;5.93;;;4.77;;
10090;SDS011;5084;51.386;6.778;2022-11-15T01:13:46;5.10;;;4.70;;
10090;SDS011;5084;51.386;6.778;2022-11-15T01:16:13;6.73;;;5.70;;
10090;SDS011;5084;51.386;6.778;2022-11-15T01:18:39;6.50;;;5.10;;
10090;SDS011;5084;51.386;6.778;2022-11-15T01:21:06;5.63;;;5.07;;
10090;SDS011;5084;51.386;6.778;2022-11-15T01:23:33;6.27;;;5.60;;
10090;SDS011;5084;51.386;6.778;2022-11-15T01:26:00;6.43;;;5.83;;
10090;SDS011;5084;51.386;6.778;2022-11-15T01:28:29;6.63;;;5.30;;
10090;SDS011;5084;51.386;6.778;2022-11-15T01:30:57;7.40;;;5.40;;
10090;SDS011;5084;51.386;6.778;2022-11-15T01:33:23;5.43;;;4.90;;
10090;SDS011;5084;51.386;6.778;2022-11-15T01:35:49;6.00;;;5.03;;
10090;SDS011;5084;51.386;6.778;2022-11-15T01:38:22;5.80;;;4.83;;
10090;SDS011;5084;51.386;6.778;2022-11-15T01:40:48;5.90;;;4.80;;
10090;SDS011;5084;51.386;6.778;2022-11-15T01:43:18;5.63;;;5.10;;
10090;SDS011;5084;51.386;6.778;2022-11-15T01:45:49;9.43;;;5.20;;
10090;SDS011;5084;51.386;6.778;2022-11-15T01:48:17;5.63;;;4.77;;
10090;SDS011;5084;51.386;6.778;2022-11-15T01:50:43;5.23;;;4.33;;
10090;SDS011;5084;51.386;6.778;2022-11-15T01:53:09;6.37;;;4.70;;
10090;SDS011;5084;51.386;6.778;2022-11-15T01:55:35;6.03;;;5.30;;
10090;SDS011;5084;51.386;6.778;2022-11-15T01:58:02;5.07;;;4.57;;
10090;SDS011;5084;51.386;6.778;2022-11-15T02:00:29;6.00;;;4.80;;
10090;SDS011;5084;51.386;6.778;2022-11-15T02:02:55;5.50;;;4.87;;
10090;SDS011;5084;51.386;6.778;2022-11-15T02:05:28;5.70;;;5.20;;
10090;SDS011;5084;51.386;6.778;2022-11-15T02:07:54;4.73;;;4.23;;
10090;SDS011;5084;51.386;6.778;2022-11-15T02:10:21;5.97;;;5.17;;
10090;SDS011;5084;51.386;6.778;2022-11-15T02:12:48;5.10;;;4.60;;
10090;SDS011;5084;51.386;6.778;2022-11-15T02:15:14;6.30;;;4.43;;
10090;SDS011;5084;51.386;6.778;2022-11-15T02:17:48;4.70;;;4.30;;
10090;SDS011;5084;51.386;6.778;2022-11-15T02:20:38;5.17;;;4.63;;
10090;SDS011;5084;51.386;6.778;2022-11-15T02:28:27;6.50;;;5.20;;
10090;SDS011;5084;51.386;6.778;2022-11-15T02:33:33;5.80;;;4.97;;
10090;SDS011;5084;51.386;6.778;2022-11-15T02:36:02;5.57;;;5.07;;
10090;SDS011;5084;51.386;6.778;2022-11-15T02:38:39;6.53;;;5.07;;
10090;SDS011;5084;51.386;6.778;2022-11-15T02:41:11;6.23;;;4.97;;
10090;SDS011;5084;51.386;6.778;2022-11-15T02:43:45;5.27;;;4.73;;
10090;SDS011;5084;51.386;6.778;2022-11-15T02:46:27;5.97;;;5.00;;
10090;SDS011;5084;51.386;6.778;2022-11-15T02:49:12;5.07;;;4.67;;
10090;SDS011;5084;51.386;6.778;2022-11-15T02:51:39;4.90;;;4.40;;
10090;SDS011;5084;51.386;6.778;2022-11-15T02:54:06;5.60;;;4.97;;
10090;SDS011;5084;51.386;6.778;2022-11-15T02:56:32;5.90;;;4.63;;
10090;SDS011;5084;51.386;6.778;2022-11-15T02:59:09;5.37;;;4.87;;
10090;SDS011;5084;51.386;6.778;2022-11-15T03:01:39;7.23;;;4.97;;
10090;SDS011;5084;51.386;6.778;2022-11-15T03:04:14;5.07;;;4.53;;
10090;SDS011;5084;51.386;6.778;2022-11-15T03:06:48;5.33;;;4.83;;
10090;SDS011;5084;51.386;6.778;2022-11-15T03:09:24;5.20;;;4.67;;
10090;SDS011;5084;51.386;6.778;2022-11-15T03:11:56;6.00;;;5.40;;
10090;SDS011;5084;51.386;6.778;2022-11-15T03:14:25;5.20;;;4.50;;
10090;SDS011;5084;51.386;6.778;2022-11-15T03:22:06;5.00;;;4.50;;
10090;SDS011;5084;51.386;6.778;2022-11-15T03:24:36;5.83;;;5.10;;
10090;SDS011;5084;51.386;6.778;2022-11-15T03:27:03;5.20;;;4.67;;
10090;SDS011;5084;51.386;6.778;2022-11-15T03:29:35;6.07;;;5.47;;
10090;SDS011;5084;51.386;6.778;2022-11-15T03:32:04;5.50;;;4.93;;
10090;SDS011;5084;51.386;6.778;2022-11-15T03:36:57;6.90;;;5.20;;
10090;SDS011;5084;51.386;6.778;2022-11-15T03:39:23;5.60;;;5.00;;
10090;SDS011;5084;51.386;6.778;2022-11-15T03:47:31;7.23;;;4.60;;
10090;SDS011;5084;51.386;6.778;2022-11-15T03:49:59;7.97;;;5.10;;
10090;SDS011;5084;51.386;6.778;2022-11-15T03:52:30;5.47;;;4.60;;
10090;SDS011;5084;51.386;6.778;2022-11-15T03:54:57;6.10;;;5.10;;
10090;SDS011;5084;51.386;6.778;2022-11-15T03:57:25;5.43;;;4.87;;
10090;SDS011;5084;51.386;6.778;2022-11-15T03:59:51;5.40;;;4.73;;
10090;SDS011;5084;51.386;6.778;2022-11-15T04:02:18;4.90;;;4.50;;
10090;SDS011;5084;51.386;6.778;2022-11-15T04:04:44;6.27;;;4.93;;
10090;SDS011;5084;51.386;6.778;2022-11-15T04:07:10;5.90;;;5.30;;
10090;SDS011;5084;51.386;6.778;2022-11-15T04:09:36;4.87;;;4.47;;
10090;SDS011;5084;51.386;6.778;2022-11-15T04:12:21;9.17;;;5.50;;
10090;SDS011;5084;51.386;6.778;2022-11-15T04:14:55;5.83;;;5.13;;
10090;SDS011;5084;51.386;6.778;2022-11-15T04:20:01;5.20;;;4.73;;
10090;SDS011;5084;51.386;6.778;2022-11-15T04:22:45;8.07;;;5.37;;
10090;SDS011;5084;51.386;6.778;2022-11-15T04:25:30;5.43;;;4.90;;
10090;SDS011;5084;51.386;6.778;2022-11-15T04:27:56;6.23;;;4.87;;
10090;SDS011;5084;51.386;6.778;2022-11-15T04:30:22;7.57;;;5.13;;
10090;SDS011;5084;51.386;6.778;2022-11-15T04:32:48;6.93;;;4.40;;
10090;SDS011;5084;51.386;6.778;2022-11-15T04:35:14;5.97;;;4.70;;
10090;SDS011;5084;51.386;6.778;2022-11-15T04:37:40;5.13;;;4.67;;
10090;SDS011;5084;51.386;6.778;2022-11-15T04:40:06;6.67;;;5.97;;
10090;SDS011;5084;51.386;6.778;2022-11-15T04:42:33;5.53;;;5.03;;
10090;SDS011;5084;51.386;6.778;2022-11-15T04:44:59;4.50;;;4.10;;
10090;SDS011;5084;51.386;6.778;2022-11-15T04:47:25;4.87;;;4.47;;
10090;SDS011;5084;51.386;6.778;2022-11-15T04:49:53;4.80;;;4.40;;
10090;SDS011;5084;51.386;6.778;2022-11-15T04:52:19;5.03;;;4.53;;
10090;SDS011;5084;51.386;6.778;2022-11-15T04:54:45;6.43;;;4.40;;
10090;SDS011;5084;51.386;6.778;2022-11-15T04:57:11;5.33;;;4.57;;
10090;SDS011;5084;51.386;6.778;2022-11-15T04:59:37;6.20;;;5.30;;
10090;SDS011;5084;51.386;6.778;2022-11-15T05:02:03;5.00;;;4.60;;
10090;SDS011;5084;51.386;6.778;2022-11-15T05:04:29;4.67;;;4.27;;
10090;SDS011;5084;51.386;6.778;2022-11-15T05:06:55;5.10;;;4.60;;
10090;SDS011;5084;51.386;6.778;2022-11-15T05:09:21;4.97;;;4.43;;
10090;SDS011;5084;51.386;6.778;2022-11-15T05:11:47;5.90;;;4.40;;
10090;SDS011;5084;51.386;6.778;2022-11-15T05:14:14;4.40;;;4.00;;
10090;SDS011;5084;51.386;6.778;2022-11-15T05:16:40;4.77;;;3.83;;
10090;SDS011;5084;51.386;6.778;2022-11-15T05:19:06;4.10;;;3.80;;
10090;SDS011;5084;51.386;6.778;2022-11-15T05:21:32;4.57;;;4.17;;
10090;SDS011;5084;51.386;6.778;2022-11-15T05:23:59;4.50;;;4.10;;
10090;SDS011;5084;51.386;6.778;2022-11-15T05:26:25;4.83;;;4.03;;
10090;SDS011;5084;51.386;6.778;2022-11-15T05:28:52;7.23;;;4.57;;
10090;SDS011;5084;51.386;6.778;2022-11-15T05:31:19;4.40;;;4.00;;
10090;SDS011;5084;51.386;6.778;2022-11-15T05:33:45;4.80;;;4.37;;
10090;SDS011;5084;51.386;6.778;2022-11-15T05:38:43;5.17;;;4.00;;
10090;SDS011;5084;51.386;6.778;2022-11-15T05:41:10;4.60;;;4.20;;
10090;SDS011;5084;51.386;6.778;2022-11-15T05:43:36;4.77;;;4.33;;
10090;SDS011;5084;51.386;6.778;2022-11-15T05:46:03;5.10;;;4.17;;
10090;SDS011;5084;51.386;6.778;2022-11-15T05:48:37;4.67;;;4.13;;
10090;SDS011;5084;51.386;6.778;2022-11-15T05:51:03;4.67;;;4.27;;
10090;SDS011;5084;51.386;6.778;2022-11-15T05:53:30;4.73;;;4.33;;
10090;SDS011;5084;51.386;6.778;2022-11-15T05:55:56;5.27;;;4.77;;
10090;SDS011;5084;51.386;6.778;2022-11-15T05:58:22;4.00;;;3.70;;
10090;SDS011;5084;51.386;6.778;2022-11-15T06:00:48;5.23;;;4.83;;
10090;SDS011;5084;51.386;6.778;2022-11-15T06:03:14;5.53;;;5.03;;
10090;SDS011;5084;51.386;6.778;2022-11-15T06:05:40;5.17;;;4.70;;
10090;SDS011;5084;51.386;6.778;2022-11-15T06:08:06;5.00;;;4.50;;
10090;SDS011;5084;51.386;6.778;2022-11-15T06:10:32;4.90;;;4.33;;
10090;SDS011;5084;51.386;6.778;2022-11-15T06:12:59;4.77;;;4.37;;
10090;SDS011;5084;51.386;6.778;2022-11-15T06:15:25;5.63;;;4.60;;
10090;SDS011;5084;51.386;6.778;2022-11-15T06:17:51;7.50;;;4.07;;
10090;SDS011;5084;51.386;6.778;2022-11-15T06:20:22;5.23;;;4.47;;
10090;SDS011;5084;51.386;6.778;2022-11-15T06:22:48;5.30;;;4.80;;
10090;SDS011;5084;51.386;6.778;2022-11-15T06:25:14;5.50;;;4.80;;
10090;SDS011;5084;51.386;6.778;2022-11-15T06:27:40;6.83;;;5.83;;
10090;SDS011;5084;51.386;6.778;2022-11-15T06:30:06;6.77;;;5.97;;
10090;SDS011;5084;51.386;6.778;2022-11-15T06:32:32;6.43;;;5.33;;
10090;SDS011;5084;51.386;6.778;2022-11-15T06:34:58;5.07;;;4.57;;
10090;SDS011;5084;51.386;6.778;2022-11-15T06:37:24;5.33;;;4.70;;
10090;SDS011;5084;51.386;6.778;2022-11-15T06:39:50;5.40;;;4.93;;
10090;SDS011;5084;51.386;6.778;2022-11-15T06:42:16;6.87;;;5.13;;
10090;SDS011;5084;51.386;6.778;2022-11-15T06:44:42;5.00;;;4.50;;
10090;SDS011;5084;51.386;6.778;2022-11-15T06:47:08;4.83;;;4.30;;
10090;SDS011;5084;51.386;6.778;2022-11-15T06:49:34;4.73;;;4.33;;
10090;SDS011;5084;51.386;6.778;2022-11-15T06:52:01;5.90;;;5.07;;
10090;SDS011;5084;51.386;6.778;2022-11-15T06:54:27;5.20;;;4.73;;
10090;SDS011;5084;51.386;6.778;2022-11-15T06:56:53;5.77;;;5.20;;
10090;SDS011;5084;51.386;6.778;2022-11-15T06:59:19;5.07;;;4.13;;
10090;SDS011;5084;51.386;6.778;2022-11-15T07:01:45;4.10;;;3.73;;
10090;SDS011;5084;51.386;6.778;2022-11-15T07:04:11;4.90;;;4.40;;
10090;SDS011;5084;51.386;6.778;2022-11-15T07:06:37;5.40;;;4.27;;
10090;SDS011;5084;51.386;6.778;2022-11-15T07:09:03;5.10;;;4.60;;
10090;SDS011;5084;51.386;6.778;2022-11-15T07:11:29;4.60;;;4.23;;
10090;SDS011;5084;51.386;6.778;2022-11-15T07:13:55;5.10;;;4.60;;
10090;SDS011;5084;51.386;6.778;2022-11-15T07:16:21;5.13;;;4.33;;
10090;SDS011;5084;51.386;6.778;2022-11-15T07:18:47;5.50;;;5.00;;
10090;SDS011;5084;51.386;6.778;2022-11-15T07:21:13;4.20;;;3.80;;
10090;SDS011;5084;51.386;6.778;2022-11-15T07:23:39;4.77;;;4.37;;
10090;SDS011;5084;51.386;6.778;2022-11-15T07:26:06;5.20;;;4.70;;
10090;SDS011;5084;51.386;6.778;2022-11-15T07:28:32;4.40;;;4.10;;
10090;SDS011;5084;51.386;6.778;2022-11-15T07:31:01;5.07;;;4.00;;
10090;SDS011;5084;51.386;6.778;2022-11-15T07:33:27;4.37;;;3.97;;
10090;SDS011;5084;51.386;6.778;2022-11-15T07:35:53;4.13;;;3.63;;
10090;SDS011;5084;51.386;6.778;2022-11-15T07:38:19;5.20;;;3.97;;
10090;SDS011;5084;51.386;6.778;2022-11-15T07:40:46;3.40;;;3.13;;
10090;SDS011;5084;51.386;6.778;2022-11-15T07:43:12;6.37;;;4.13;;
10090;SDS011;5084;51.386;6.778;2022-11-15T07:45:42;3.70;;;3.40;;
10090;SDS011;5084;51.386;6.778;2022-11-15T07:48:08;4.00;;;3.70;;
10090;SDS011;5084;51.386;6.778;2022-11-15T07:50:34;4.30;;;3.90;;
10090;SDS011;5084;51.386;6.778;2022-11-15T07:53:00;4.40;;;4.00;;
10090;SDS011;5084;51.386;6.778;2022-11-15T07:55:27;4.10;;;3.70;;
10090;SDS011;5084;51.386;6.778;2022-11-15T07:58:04;3.70;;;3.33;;
10090;SDS011;5084;51.386;6.778;2022-11-15T08:00:30;4.10;;;3.30;;
10090;SDS011;5084;51.386;6.778;2022-11-15T08:03:07;4.03;;;3.63;;
10090;SDS011;5084;51.386;6.778;2022-11-15T08:05:40;3.53;;;3.03;;
10090;SDS011;5084;51.386;6.778;2022-11-15T08:08:07;3.70;;;3.40;;
10090;SDS011;5084;51.386;6.778;2022-11-15T08:10:34;3.43;;;3.13;;
10090;SDS011;5084;51.386;6.778;2022-11-15T08:13:08;4.00;;;2.97;;
10090;SDS011;5084;51.386;6.778;2022-11-15T08:15:34;3.33;;;3.03;;
10090;SDS011;5084;51.386;6.778;2022-11-15T08:18:03;3.00;;;2.70;;
10090;SDS011;5084;51.386;6.778;2022-11-15T08:20:29;2.90;;;2.60;;
10090;SDS011;5084;51.386;6.778;2022-11-15T08:22:56;2.80;;;2.60;;
10090;SDS011;5084;51.386;6.778;2022-11-15T08:25:22;3.40;;;2.50;;
10090;SDS011;5084;51.386;6.778;2022-11-15T08:27:51;2.80;;;2.60;;
10090;SDS011;5084;51.386;6.778;2022-11-15T08:30:17;3.27;;;2.67;;
10090;SDS011;5084;51.386;6.778;2022-11-15T08:32:43;3.27;;;2.80;;
10090;SDS011;5084;51.386;6.778;2022-11-15T08:35:09;2.80;;;2.60;;
10090;SDS011;5084;51.386;6.778;2022-11-15T08:37:35;2.97;;;2.67;;
10090;SDS011;5084;51.386;6.778;2022-11-15T08:40:01;4.03;;;2.90;;
10090;SDS011;5084;51.386;6.778;2022-11-15T08:42:27;3.37;;;2.57;;
10090;SDS011;5084;51.386;6.778;2022-11-15T08:44:53;3.43;;;2.63;;
10090;SDS011;5084;51.386;6.778;2022-11-15T08:47:19;2.73;;;2.53;;
10090;SDS011;5084;51.386;6.778;2022-11-15T08:49:46;3.03;;;2.70;;
10090;SDS011;5084;51.386;6.778;2022-11-15T08:52:12;2.80;;;2.60;;
10090;SDS011;5084;51.386;6.778;2022-11-15T08:54:39;2.23;;;2.13;;
10090;SDS011;5084;51.386;6.778;2022-11-15T08:57:05;3.03;;;2.77;;
10090;SDS011;5084;51.386;6.778;2022-11-15T08:59:32;3.07;;;2.77;;
10090;SDS011;5084;51.386;6.778;2022-11-15T09:01:58;3.47;;;2.20;;
10090;SDS011;5084;51.386;6.778;2022-11-15T09:04:24;2.70;;;2.40;;
10090;SDS011;5084;51.386;6.778;2022-11-15T09:06:50;2.67;;;2.47;;
10090;SDS011;5084;51.386;6.778;2022-11-15T09:09:16;2.70;;;2.50;;
10090;SDS011;5084;51.386;6.778;2022-11-15T09:11:42;3.07;;;2.77;;
10090;SDS011;5084;51.386;6.778;2022-11-15T09:14:10;2.90;;;2.70;;
10090;SDS011;5084;51.386;6.778;2022-11-15T09:16:36;4.07;;;2.40;;
10090;SDS011;5084;51.386;6.778;2022-11-15T09:19:02;2.37;;;2.17;;
10090;SDS011;5084;51.386;6.778;2022-11-15T09:21:28;3.33;;;2.57;;
10090;SDS011;5084;51.386;6.778;2022-11-15T09:23:54;2.93;;;2.67;;
10090;SDS011;5084;51.386;6.778;2022-11-15T09:26:20;3.27;;;2.80;;
10090;SDS011;5084;51.386;6.778;2022-11-15T09:28:46;3.67;;;2.83;;
10090;SDS011;5084;51.386;6.778;2022-11-15T09:31:12;2.60;;;2.40;;
10090;SDS011;5084;51.386;6.778;2022-11-15T09:33:38;3.77;;;2.70;;
10090;SDS011;5084;51.386;6.778;2022-11-15T09:36:08;4.37;;;2.87;;
10090;SDS011;5084;51.386;6.778;2022-11-15T09:38:35;4.33;;;2.50;;
10090;SDS011;5084;51.386;6.778;2022-11-15T09:48:59;2.77;;;2.57;;
10090;SDS011;5084;51.386;6.778;2022-11-15T09:54:03;2.80;;;2.60;;
10090;SDS011;5084;51.386;6.778;2022-11-15T09:56:31;3.70;;;2.40;;
10090;SDS011;5084;51.386;6.778;2022-11-15T10:01:47;3.43;;;2.07;;
10090;SDS011;5084;51.386;6.778;2022-11-15T10:04:15;2.70;;;2.50;;
10090;SDS011;5084;51.386;6.778;2022-11-15T10:06:44;2.57;;;2.30;;
10090;SDS011;5084;51.386;6.778;2022-11-15T10:09:15;2.57;;;2.27;;
10090;SDS011;5084;51.386;6.778;2022-11-15T10:11:44;2.53;;;1.80;;
10090;SDS011;5084;51.386;6.778;2022-11-15T10:19:19;3.67;;;2.00;;
10090;SDS011;5084;51.386;6.778;2022-11-15T10:21:51;1.90;;;1.80;;
10090;SDS011;5084;51.386;6.778;2022-11-15T10:24:19;4.30;;;2.20;;
10090;SDS011;5084;51.386;6.778;2022-11-15T10:26:46;4.00;;;1.67;;
10090;SDS011;5084;51.386;6.778;2022-11-15T10:29:17;2.20;;;2.00;;
10090;SDS011;5084;51.386;6.778;2022-11-15T10:31:43;3.93;;;2.03;;
10090;SDS011;5084;51.386;6.778;2022-11-15T10:36:36;2.10;;;1.90;;
10090;SDS011;5084;51.386;6.778;2022-11-15T10:39:02;1.70;;;1.60;;
10090;SDS011;5084;51.386;6.778;2022-11-15T10:41:30;1.60;;;1.50;;
10090;SDS011;5084;51.386;6.778;2022-11-15T10:44:10;1.90;;;1.70;;
10090;SDS011;5084;51.386;6.778;2022-11-15T10:46:38;1.60;;;1.50;;
10090;SDS011;5084;51.386;6.778;2022-11-15T10:51:41;2.13;;;1.87;;
10090;SDS011;5084;51.386;6.778;2022-11-15T10:54:08;3.97;;;2.47;;
10090;SDS011;5084;51.386;6.778;2022-11-15T10:56:36;2.17;;;1.70;;
10090;SDS011;5084;51.386;6.778;2022-11-15T10:59:02;3.70;;;1.87;;
10090;SDS011;5084;51.386;6.778;2022-11-15T11:01:28;3.40;;;1.90;;
10090;SDS011;5084;51.386;6.778;2022-11-15T11:06:27;2.13;;;1.87;;
10090;SDS011;5084;51.386;6.778;2022-11-15T11:08:54;2.47;;;1.70;;
10090;SDS011;5084;51.386;6.778;2022-11-15T11:11:20;2.60;;;1.83;;
10090;SDS011;5084;51.386;6.778;2022-11-15T11:13:46;1.90;;;1.70;;
10090;SDS011;5084;51.386;6.778;2022-11-15T11:18:43;1.93;;;1.67;;
10090;SDS011;5084;51.386;6.778;2022-11-15T11:21:15;1.60;;;1.50;;
10090;SDS011;5084;51.386;6.778;2022-11-15T11:26:29;4.73;;;1.70;;
10090;SDS011;5084;51.386;6.778;2022-11-15T11:29:14;2.63;;;1.57;;
10090;SDS011;5084;51.386;6.778;2022-11-15T11:34:40;2.17;;;1.90;;
10090;SDS011;5084;51.386;6.778;2022-11-15T11:40:02;3.10;;;1.50;;
10090;SDS011;5084;51.386;6.778;2022-11-15T11:45:15;2.47;;;1.70;;
10090;SDS011;5084;51.386;6.778;2022-11-15T11:47:51;1.87;;;1.57;;
10090;SDS011;5084;51.386;6.778;2022-11-15T11:50:26;1.90;;;1.47;;
10090;SDS011;5084;51.386;6.778;2022-11-15T11:55:31;3.57;;;2.60;;
10090;SDS011;5084;51.386;6.778;2022-11-15T12:00:54;2.73;;;2.20;;
10090;SDS011;5084;51.386;6.778;2022-11-15T12:05:57;1.67;;;1.57;;
10090;SDS011;5084;51.386;6.778;2022-11-15T12:11:14;2.73;;;1.80;;
10090;SDS011;5084;51.386;6.778;2022-11-15T12:13:42;5.00;;;2.00;;
10090;SDS011;5084;51.386;6.778;2022-11-15T12:16:16;5.07;;;1.70;;
10090;SDS011;5084;51.386;6.778;2022-11-15T12:18:44;2.53;;;1.70;;
10090;SDS011;5084;51.386;6.778;2022-11-15T12:23:44;2.50;;;1.70;;
10090;SDS011;5084;51.386;6.778;2022-11-15T12:26:25;2.50;;;1.70;;
10090;SDS011;5084;51.386;6.778;2022-11-15T12:28:53;1.53;;;1.43;;
10090;SDS011;5084;51.386;6.778;2022-11-15T12:34:05;4.13;;;1.70;;
10090;SDS011;5084;51.386;6.778;2022-11-15T12:36:45;4.53;;;1.83;;
10090;SDS011;5084;51.386;6.778;2022-11-15T12:39:12;2.07;;;1.70;;
10090;SDS011;5084;51.386;6.778;2022-11-15T12:42:34;1.77;;;1.67;;
10090;SDS011;5084;51.386;6.778;2022-11-15T13:04:43;2.30;;;1.83;;
10090;SDS011;5084;51.386;6.778;2022-11-15T13:07:09;1.97;;;1.80;;
10090;SDS011;5084;51.386;6.778;2022-11-15T13:09:55;2.57;;;1.40;;
10090;SDS011;5084;51.386;6.778;2022-11-15T13:14:54;1.53;;;1.40;;
10090;SDS011;5084;51.386;6.778;2022-11-15T13:17:47;2.60;;;1.47;;
10090;SDS011;5084;51.386;6.778;2022-11-15T13:22:41;3.77;;;1.57;;
10090;SDS011;5084;51.386;6.778;2022-11-15T13:27:48;2.90;;;1.60;;
10090;SDS011;5084;51.386;6.778;2022-11-15T13:30:22;3.43;;;1.73;;
10090;SDS011;5084;51.386;6.778;2022-11-15T13:32:49;1.60;;;1.50;;
10090;SDS011;5084;51.386;6.778;2022-11-15T13:35:23;1.83;;;1.73;;
10090;SDS011;5084;51.386;6.778;2022-11-15T13:37:50;2.67;;;1.77;;
10090;SDS011;5084;51.386;6.778;2022-11-15T13:42:42;3.90;;;1.50;;
10090;SDS011;5084;51.386;6.778;2022-11-15T13:45:11;2.93;;;1.80;;
10090;SDS011;5084;51.386;6.778;2022-11-15T13:47:38;3.77;;;2.10;;
10090;SDS011;5084;51.386;6.778;2022-11-15T13:50:04;1.73;;;1.50;;
10090;SDS011;5084;51.386;6.778;2022-11-15T13:52:31;3.37;;;1.67;;
10090;SDS011;5084;51.386;6.778;2022-11-15T13:55:03;2.47;;;2.27;;
10090;SDS011;5084;51.386;6.778;2022-11-15T13:57:39;1.93;;;1.73;;
10090;SDS011;5084;51.386;6.778;2022-11-15T14:00:30;2.47;;;1.63;;
10090;SDS011;5084;51.386;6.778;2022-11-15T14:03:04;3.43;;;1.53;;
10090;SDS011;5084;51.386;6.778;2022-11-15T14:05:31;3.93;;;1.50;;
10090;SDS011;5084;51.386;6.778;2022-11-15T14:07:58;3.33;;;1.90;;
10090;SDS011;5084;51.386;6.778;2022-11-15T14:10:26;2.07;;;1.40;;
10090;SDS011;5084;51.386;6.778;2022-11-15T14:12:53;1.60;;;1.50;;
10090;SDS011;5084;51.386;6.778;2022-11-15T14:15:35;3.60;;;1.70;;
10090;SDS011;5084;51.386;6.778;2022-11-15T14:18:02;4.17;;;1.90;;
10090;SDS011;5084;51.386;6.778;2022-11-15T14:20:32;5.80;;;1.70;;
10090;SDS011;5084;51.386;6.778;2022-11-15T14:23:03;1.97;;;1.63;;
10090;SDS011;5084;51.386;6.778;2022-11-15T14:25:30;1.90;;;1.40;;
10090;SDS011;5084;51.386;6.778;2022-11-15T14:30:34;2.20;;;1.60;;
10090;SDS011;5084;51.386;6.778;2022-11-15T14:33:01;3.17;;;1.73;;
10090;SDS011;5084;51.386;6.778;2022-11-15T14:35:27;2.40;;;1.60;;
10090;SDS011;5084;51.386;6.778;2022-11-15T14:37:53;3.50;;;1.80;;
10090;SDS011;5084;51.386;6.778;2022-11-15T14:40:20;2.80;;;1.57;;
10090;SDS011;5084;51.386;6.778;2022-11-15T14:42:47;1.53;;;1.43;;
10090;SDS011;5084;51.386;6.778;2022-11-15T14:45:18;3.30;;;1.60;;
10090;SDS011;5084;51.386;6.778;2022-11-15T14:47:44;3.27;;;1.73;;
10090;SDS011;5084;51.386;6.778;2022-11-15T14:50:14;1.83;;;1.53;;
10090;SDS011;5084;51.386;6.778;2022-11-15T14:52:40;6.27;;;1.80;;
10090;SDS011;5084;51.386;6.778;2022-11-15T14:55:11;2.67;;;1.70;;
10090;SDS011;5084;51.386;6.778;2022-11-15T14:57:39;4.90;;;2.17;;
10090;SDS011;5084;51.386;6.778;2022-11-15T15:00:05;3.77;;;2.33;;
10090;SDS011;5084;51.386;6.778;2022-11-15T15:02:33;1.80;;;1.70;;
10090;SDS011;5084;51.386;6.778;2022-11-15T15:04:59;2.13;;;1.93;;
10090;SDS011;5084;51.386;6.778;2022-11-15T15:07:28;3.87;;;2.00;;
10090;SDS011;5084;51.386;6.778;2022-11-15T15:09:54;4.33;;;1.80;;
10090;SDS011;5084;51.386;6.778;2022-11-15T15:12:20;2.00;;;1.90;;
10090;SDS011;5084;51.386;6.778;2022-11-15T15:14:48;2.53;;;2.30;;
10090;SDS011;5084;51.386;6.778;2022-11-15T15:17:15;3.27;;;2.03;;
10090;SDS011;5084;51.386;6.778;2022-11-15T15:19:41;3.27;;;2.30;;
10090;SDS011;5084;51.386;6.778;2022-11-15T15:22:17;3.70;;;2.80;;
10090;SDS011;5084;51.386;6.778;2022-11-15T15:24:44;2.20;;;2.00;;
10090;SDS011;5084;51.386;6.778;2022-11-15T15:27:11;2.57;;;2.20;;
10090;SDS011;5084;51.386;6.778;2022-11-15T15:29:37;2.20;;;2.00;;
10090;SDS011;5084;51.386;6.778;2022-11-15T15:32:03;5.57;;;2.30;;
10090;SDS011;5084;51.386;6.778;2022-11-15T15:34:30;3.23;;;1.90;;
10090;SDS011;5084;51.386;6.778;2022-11-15T15:39:40;2.47;;;2.27;;
10090;SDS011;5084;51.386;6.778;2022-11-15T15:42:06;2.53;;;2.30;;
10090;SDS011;5084;51.386;6.778;2022-11-15T15:44:32;2.00;;;1.90;;
10090;SDS011;5084;51.386;6.778;2022-11-15T15:46:58;4.83;;;2.50;;
10090;SDS011;5084;51.386;6.778;2022-11-15T15:49:24;2.80;;;2.13;;
10090;SDS011;5084;51.386;6.778;2022-11-15T15:51:50;3.53;;;2.30;;
10090;SDS011;5084;51.386;6.778;2022-11-15T15:54:16;2.27;;;2.07;;
10090;SDS011;5084;51.386;6.778;2022-11-15T15:56:42;2.40;;;2.20;;
10090;SDS011;5084;51.386;6.778;2022-11-15T15:59:08;4.40;;;2.07;;
10090;SDS011;5084;51.386;6.778;2022-11-15T16:01:34;2.47;;;2.27;;
10090;SDS011;5084;51.386;6.778;2022-11-15T16:04:00;1.93;;;1.70;;
10090;SDS011;5084;51.386;6.778;2022-11-15T16:06:37;3.70;;;2.00;;
10090;SDS011;5084;51.386;6.778;2022-11-15T16:09:04;3.53;;;2.17;;
10090;SDS011;5084;51.386;6.778;2022-11-15T16:11:30;3.70;;;1.87;;
10090;SDS011;5084;51.386;6.778;2022-11-15T16:13:56;3.57;;;2.30;;
10090;SDS011;5084;51.386;6.778;2022-11-15T16:16:22;3.17;;;2.30;;
10090;SDS011;5084;51.386;6.778;2022-11-15T16:18:48;5.50;;;2.30;;
10090;SDS011;5084;51.386;6.778;2022-11-15T16:21:14;2.00;;;1.90;;
10090;SDS011;5084;51.386;6.778;2022-11-15T16:23:40;3.40;;;2.40;;
10090;SDS011;5084;51.386;6.778;2022-11-15T16:26:12;2.67;;;2.20;;
10090;SDS011;5084;51.386;6.778;2022-11-15T16:28:40;2.10;;;1.77;;
10090;SDS011;5084;51.386;6.778;2022-11-15T16:31:09;2.37;;;2.00;;
10090;SDS011;5084;51.386;6.778;2022-11-15T16:33:36;3.00;;;1.90;;
10090;SDS011;5084;51.386;6.778;2022-11-15T16:36:02;4.27;;;2.37;;
10090;SDS011;5084;51.386;6.778;2022-11-15T16:38:28;2.23;;;1.90;;
10090;SDS011;5084;51.386;6.778;2022-11-15T16:40:54;2.07;;;1.80;;
10090;SDS011;5084;51.386;6.778;2022-11-15T16:43:21;6.10;;;2.00;;
10090;SDS011;5084;51.386;6.778;2022-11-15T16:45:47;2.07;;;1.97;;
10090;SDS011;5084;51.386;6.778;2022-11-15T16:48:24;3.00;;;2.30;;
10090;SDS011;5084;51.386;6.778;2022-11-15T16:51:00;3.97;;;2.43;;
10090;SDS011;5084;51.386;6.778;2022-11-15T16:53:28;3.73;;;2.00;;
10090;SDS011;5084;51.386;6.778;2022-11-15T16:55:54;2.30;;;2.10;;
10090;SDS011;5084;51.386;6.778;2022-11-15T16:58:20;2.33;;;2.13;;
10090;SDS011;5084;51.386;6.778;2022-11-15T17:00:53;2.10;;;2.00;;
10090;SDS011;5084;51.386;6.778;2022-11-15T17:03:20;2.53;;;2.20;;
10090;SDS011;5084;51.386;6.778;2022-11-15T17:05:46;2.40;;;2.20;;